createdAt,value
2018-12-29T00:02:40.540Z,12.55
2018-12-29T00:08:35.624Z,12.94
2018-12-29T00:14:30.564Z,12.18
2018-12-29T00:20:25.591Z,11.23
2018-12-29T00:26:20.590Z,11.1
2018-12-29T00:32:15.585Z,11.01
2018-12-29T00:38:10.563Z,12.08
2018-12-29T00:44:05.602Z,10.69
2018-12-29T00:50:00.594Z,11.89
2018-12-29T00:55:55.587Z,11.73
2018-12-29T01:01:50.606Z,12.33
2018-12-29T01:07:45.594Z,11.74
2018-12-29T01:13:40.607Z,11.89
2018-12-29T01:19:35.619Z,12.53
2018-12-29T01:25:30.605Z,12.69
2018-12-29T01:31:25.637Z,11.13
2018-12-29T01:37:20.612Z,12.22
2018-12-29T01:43:15.633Z,11.59
2018-12-29T01:49:10.621Z,12
2018-12-29T01:55:05.629Z,11.71
2018-12-29T02:01:00.658Z,11.92
2018-12-29T02:06:55.630Z,11.81
2018-12-29T02:12:50.610Z,12.23
2018-12-29T02:18:45.625Z,10.11
2018-12-29T02:24:40.651Z,11.26
2018-12-29T02:30:35.669Z,11.5
2018-12-29T02:36:30.642Z,10.33
2018-12-29T02:42:25.643Z,11.71
2018-12-29T02:48:20.637Z,11.35
2018-12-29T02:54:15.659Z,10.65
2018-12-29T03:00:10.660Z,11.17
2018-12-29T03:06:05.779Z,10.46
2018-12-29T03:12:00.703Z,11.51
2018-12-29T03:17:55.659Z,11.35
2018-12-29T03:23:50.776Z,11.87
2018-12-29T03:29:45.687Z,11.54
2018-12-29T03:35:40.713Z,11.71
2018-12-29T03:41:35.676Z,11.02
2018-12-29T03:47:30.682Z,11.25
2018-12-29T03:53:25.688Z,11.56
2018-12-29T03:59:20.685Z,11.11
2018-12-29T04:05:15.757Z,10.96
2018-12-29T04:11:10.738Z,11.21
2018-12-29T04:17:05.712Z,10.46
2018-12-29T04:23:00.756Z,12
2018-12-29T04:28:55.700Z,11.1
2018-12-29T04:34:50.764Z,11.7
2018-12-29T04:40:45.745Z,11.26
2018-12-29T04:46:40.722Z,11.05
2018-12-29T04:52:35.725Z,10.93
2018-12-29T04:58:30.724Z,10.73
2018-12-29T05:04:25.826Z,10.82
2018-12-29T05:10:20.744Z,11
2018-12-29T05:16:15.722Z,10.29
2018-12-29T05:22:10.727Z,10.93
2018-12-29T05:28:05.737Z,10.66
2018-12-29T05:34:00.767Z,10.98
2018-12-29T05:39:55.772Z,11.07
2018-12-29T05:45:50.778Z,9.51
2018-12-29T05:51:45.759Z,9.13
2018-12-29T05:57:40.751Z,10.62
2018-12-29T06:03:35.783Z,10.18
2018-12-29T06:09:30.796Z,10.05
2018-12-29T06:15:25.760Z,12.29
2018-12-29T06:21:20.778Z,12.27
2018-12-29T06:27:15.791Z,13.64
2018-12-29T06:33:10.762Z,12.37
2018-12-29T06:39:05.833Z,12.03
2018-12-29T06:45:00.781Z,14.4
2018-12-29T06:50:55.774Z,13.37
2018-12-29T06:56:50.782Z,14.49
2018-12-29T07:02:45.797Z,14.2
2018-12-29T07:08:40.780Z,14.13
2018-12-29T07:14:35.831Z,14.28
2018-12-29T07:20:30.791Z,13.54
2018-12-29T07:26:25.825Z,15.61
2018-12-29T07:32:20.822Z,15.51
2018-12-29T07:38:15.861Z,15.68
2018-12-29T07:44:10.842Z,14.26
2018-12-29T07:50:05.829Z,14.26
2018-12-29T07:56:00.815Z,14.36
2018-12-29T08:01:55.843Z,15.25
2018-12-29T08:07:50.827Z,13.95
2018-12-29T08:13:45.840Z,14.3
2018-12-29T08:19:40.843Z,14.66
2018-12-29T08:25:35.835Z,15.22
2018-12-29T08:31:30.860Z,14.68
2018-12-29T08:37:25.863Z,15.48
2018-12-29T08:43:20.883Z,16.2
2018-12-29T08:49:15.856Z,13.93
2018-12-29T08:55:10.879Z,14.75
2018-12-29T09:01:05.886Z,15.63
2018-12-29T09:07:00.881Z,16.66
2018-12-29T09:12:55.867Z,17.01
2018-12-29T09:18:50.874Z,14.79
2018-12-29T09:24:45.920Z,14.99
2018-12-29T09:30:40.873Z,16.1
2018-12-29T09:36:35.892Z,14.72
2018-12-29T09:42:30.882Z,15.6
2018-12-29T09:48:25.886Z,14.77
2018-12-29T09:54:20.883Z,14.8
2018-12-29T10:00:15.922Z,15.26
2018-12-29T10:06:10.880Z,17.11
2018-12-29T10:12:05.883Z,17.96
2018-12-29T10:18:00.889Z,19.09
2018-12-29T10:23:55.919Z,18.6
2018-12-29T10:29:50.902Z,18.26
2018-12-29T10:35:45.902Z,18
2018-12-29T10:41:40.930Z,18.49
2018-12-29T10:47:35.940Z,18.17
2018-12-29T10:53:30.919Z,17.89
2018-12-29T10:59:25.914Z,17.7
2018-12-29T11:05:20.908Z,18.21
2018-12-29T11:11:15.930Z,19.65
2018-12-29T11:17:10.922Z,19
2018-12-29T11:23:05.934Z,17.78
2018-12-29T11:29:00.967Z,18.35
2018-12-29T11:34:55.953Z,18.35
2018-12-29T11:40:50.950Z,17.64
2018-12-29T11:46:45.954Z,19.01
2018-12-29T11:52:40.961Z,18
2018-12-29T11:58:35.965Z,18.08
2018-12-29T12:04:30.949Z,20.55
2018-12-29T12:10:26.023Z,19.18
2018-12-29T12:16:20.978Z,18.37
2018-12-29T12:22:15.953Z,17.74
2018-12-29T12:28:10.956Z,17.59
2018-12-29T12:34:05.987Z,17.52
2018-12-29T12:40:01.019Z,17.06
2018-12-29T12:45:55.982Z,17.71
2018-12-29T12:51:50.966Z,14.7
2018-12-29T12:57:46.026Z,15.89
2018-12-29T13:03:41.021Z,15.34
2018-12-29T13:09:36.013Z,15.19
2018-12-29T13:15:30.993Z,16.27
2018-12-29T13:21:26.028Z,13
2018-12-29T13:27:21.005Z,17.35
2018-12-29T13:33:16.001Z,14.7
2018-12-29T13:39:11.028Z,15.45
2018-12-29T13:45:06.023Z,15.92
2018-12-29T13:51:01.071Z,15.82
2018-12-29T13:56:56.043Z,15.51
2018-12-29T14:02:51.034Z,14.61
2018-12-29T14:08:46.063Z,19.59
2018-12-29T14:14:41.032Z,13.26
2018-12-29T14:20:36.043Z,12.59
2018-12-29T14:26:31.054Z,17.34
2018-12-29T14:32:26.113Z,16.32
2018-12-29T14:38:21.079Z,16.28
2018-12-29T14:44:16.077Z,17.92
2018-12-29T14:50:11.103Z,18.26
2018-12-29T14:56:06.061Z,19.01
2018-12-29T15:02:01.090Z,19.13
2018-12-29T15:07:56.070Z,21.09
2018-12-29T15:13:51.094Z,20.3
2018-12-29T15:19:46.088Z,19.33
2018-12-29T15:25:41.070Z,18.42
2018-12-29T15:31:36.117Z,19.6
2018-12-29T15:37:31.084Z,20.29
2018-12-29T15:43:26.094Z,21.1
2018-12-29T15:49:21.110Z,20.08
2018-12-29T15:55:16.097Z,21.06
2018-12-29T16:01:11.096Z,23.98
2018-12-29T16:07:06.105Z,23.56
2018-12-29T16:13:01.104Z,23.81
2018-12-29T16:18:58.869Z,26.61
2018-12-29T16:24:51.102Z,28.42
2018-12-29T16:30:46.129Z,26.29
2018-12-29T16:36:41.174Z,25.17
2018-12-29T16:42:36.155Z,25.04
2018-12-29T16:48:31.119Z,24.5
2018-12-29T16:54:26.143Z,25.1
2018-12-29T17:00:21.180Z,31.29
2018-12-29T17:06:16.138Z,32.59
2018-12-29T17:12:11.148Z,29.47
2018-12-29T17:18:06.163Z,27.43
2018-12-29T17:24:01.140Z,28.03
2018-12-29T17:29:56.139Z,28.72
2018-12-29T17:35:51.148Z,28.72
2018-12-29T17:41:46.168Z,32.7
2018-12-29T17:47:41.170Z,28.89
2018-12-29T17:53:36.185Z,26.73
2018-12-29T17:59:31.163Z,28.75
2018-12-29T18:05:26.230Z,29.83
2018-12-29T18:11:21.150Z,29.8
2018-12-29T18:17:16.189Z,26.83
2018-12-29T18:23:11.182Z,27.63
2018-12-29T18:29:06.182Z,28.59
2018-12-29T18:35:01.205Z,30.78
2018-12-29T18:40:56.205Z,30.88
2018-12-29T18:46:51.240Z,28.82
2018-12-29T18:52:46.222Z,30.57
2018-12-29T18:58:41.203Z,28.32
2018-12-29T19:04:36.246Z,28.35
2018-12-29T19:10:31.197Z,26.92
2018-12-29T19:16:26.207Z,30.61
2018-12-29T19:22:21.204Z,30
2018-12-29T19:28:16.242Z,29.85
2018-12-29T19:34:11.230Z,30.18
2018-12-29T19:40:06.258Z,28.31
2018-12-29T19:46:01.227Z,28.78
2018-12-29T19:51:56.264Z,29.66
2018-12-29T19:57:51.253Z,29.46
2018-12-29T20:03:46.242Z,26.41
2018-12-29T20:09:41.234Z,28.57
2018-12-29T20:15:36.246Z,27.13
2018-12-29T20:21:31.275Z,26.36
2018-12-29T20:27:26.266Z,27.87
2018-12-29T20:33:21.234Z,27.33
2018-12-29T20:39:16.257Z,27.31
2018-12-29T20:45:11.261Z,25.86
2018-12-29T20:51:06.335Z,25.28
2018-12-29T20:57:01.286Z,23.66
2018-12-29T21:02:56.263Z,23.55
2018-12-29T21:08:51.289Z,23.43
2018-12-29T21:14:46.309Z,24.14
2018-12-29T21:20:41.288Z,26.42
2018-12-29T21:26:36.294Z,23.5
2018-12-29T21:32:31.282Z,25.5
2018-12-29T21:38:26.303Z,25.06
2018-12-29T21:44:21.306Z,23.02
2018-12-29T21:50:16.289Z,23.08
2018-12-29T21:56:11.309Z,24.44
2018-12-29T22:02:06.299Z,24.84
2018-12-29T22:08:01.376Z,25.07
2018-12-29T22:13:56.315Z,23.87
2018-12-29T22:19:51.314Z,25.05
2018-12-29T22:25:48.260Z,24.01
2018-12-29T22:31:41.322Z,23.38
2018-12-29T22:37:36.373Z,22.76
2018-12-29T22:43:31.338Z,24.5
2018-12-29T22:49:26.340Z,23.9
2018-12-29T22:55:21.328Z,22.46
2018-12-29T23:01:16.393Z,20.83
2018-12-29T23:07:11.354Z,19.79
2018-12-29T23:13:06.363Z,23.11
2018-12-29T23:19:01.376Z,21.75
2018-12-29T23:24:56.423Z,21.15
2018-12-29T23:30:51.373Z,24.23
2018-12-29T23:36:46.386Z,24.34
2018-12-29T23:42:41.363Z,25.38
2018-12-29T23:48:36.446Z,25.87
2018-12-29T23:54:31.365Z,22.84
